sensor_id;sensor_type;location;lat;lon;timestamp;temperature;humidity
9760;DHT22;4919;48.792;9.202;2023-04-24T00:02:04;9.40;1.00
9760;DHT22;4919;48.792;9.202;2023-04-24T00:04:48;9.40;1.00
9760;DHT22;4919;48.792;9.202;2023-04-24T00:07:34;9.40;1.00
9760;DHT22;4919;48.792;9.202;2023-04-24T00:10:19;9.40;1.00
9760;DHT22;4919;48.792;9.202;2023-04-24T00:13:04;9.30;1.00
9760;DHT22;4919;48.792;9.202;2023-04-24T00:15:49;9.30;1.00
9760;DHT22;4919;48.792;9.202;2023-04-24T00:18:34;9.30;1.00
9760;DHT22;4919;48.792;9.202;2023-04-24T00:21:18;9.20;1.00
9760;DHT22;4919;48.792;9.202;2023-04-24T00:24:03;9.20;1.00
9760;DHT22;4919;48.792;9.202;2023-04-24T00:26:48;9.20;1.00
9760;DHT22;4919;48.792;9.202;2023-04-24T00:29:33;9.20;1.00
9760;DHT22;4919;48.792;9.202;2023-04-24T00:32:18;9.10;1.00
9760;DHT22;4919;48.792;9.202;2023-04-24T00:35:04;9.10;1.00
9760;DHT22;4919;48.792;9.202;2023-04-24T00:37:49;9.10;1.00
9760;DHT22;4919;48.792;9.202;2023-04-24T00:40:34;9.10;1.00
9760;DHT22;4919;48.792;9.202;2023-04-24T00:43:19;9.10;1.00
9760;DHT22;4919;48.792;9.202;2023-04-24T00:46:04;9.10;1.00
9760;DHT22;4919;48.792;9.202;2023-04-24T00:48:49;9.00;1.00
9760;DHT22;4919;48.792;9.202;2023-04-24T00:51:34;9.00;1.00
9760;DHT22;4919;48.792;9.202;2023-04-24T00:54:20;9.00;1.00
9760;DHT22;4919;48.792;9.202;2023-04-24T00:57:04;8.90;1.00
9760;DHT22;4919;48.792;9.202;2023-04-24T00:59:50;8.90;1.00
9760;DHT22;4919;48.792;9.202;2023-04-24T01:02:35;9.00;1.00
9760;DHT22;4919;48.792;9.202;2023-04-24T01:05:20;9.00;1.00
9760;DHT22;4919;48.792;9.202;2023-04-24T01:08:04;9.10;1.00
9760;DHT22;4919;48.792;9.202;2023-04-24T01:10:51;9.10;1.00
9760;DHT22;4919;48.792;9.202;2023-04-24T01:13:37;9.20;1.00
9760;DHT22;4919;48.792;9.202;2023-04-24T01:16:21;9.20;1.00
9760;DHT22;4919;48.792;9.202;2023-04-24T01:19:07;9.30;1.00
9760;DHT22;4919;48.792;9.202;2023-04-24T01:21:53;9.30;1.00
9760;DHT22;4919;48.792;9.202;2023-04-24T01:24:40;9.30;1.00
9760;DHT22;4919;48.792;9.202;2023-04-24T01:27:25;9.50;1.00
9760;DHT22;4919;48.792;9.202;2023-04-24T01:30:10;9.40;1.00
9760;DHT22;4919;48.792;9.202;2023-04-24T01:32:56;9.40;1.00
9760;DHT22;4919;48.792;9.202;2023-04-24T01:35:41;9.40;1.00
9760;DHT22;4919;48.792;9.202;2023-04-24T01:38:26;9.40;1.00
9760;DHT22;4919;48.792;9.202;2023-04-24T01:41:11;9.50;1.00
9760;DHT22;4919;48.792;9.202;2023-04-24T01:43:57;9.50;1.00
9760;DHT22;4919;48.792;9.202;2023-04-24T01:46:42;9.50;1.00
9760;DHT22;4919;48.792;9.202;2023-04-24T01:49:27;9.50;1.00
9760;DHT22;4919;48.792;9.202;2023-04-24T01:52:12;9.50;1.00
9760;DHT22;4919;48.792;9.202;2023-04-24T01:54:59;9.50;1.00
9760;DHT22;4919;48.792;9.202;2023-04-24T01:57:44;9.50;1.00
9760;DHT22;4919;48.792;9.202;2023-04-24T02:00:29;9.50;1.00
9760;DHT22;4919;48.792;9.202;2023-04-24T02:03:14;9.50;1.00
9760;DHT22;4919;48.792;9.202;2023-04-24T02:05:59;9.50;1.00
9760;DHT22;4919;48.792;9.202;2023-04-24T02:08:43;9.50;1.00
9760;DHT22;4919;48.792;9.202;2023-04-24T02:11:28;9.60;1.00
9760;DHT22;4919;48.792;9.202;2023-04-24T02:14:13;9.60;1.00
9760;DHT22;4919;48.792;9.202;2023-04-24T02:16:58;9.70;1.00
9760;DHT22;4919;48.792;9.202;2023-04-24T02:19:43;9.70;1.00
9760;DHT22;4919;48.792;9.202;2023-04-24T02:22:28;9.70;1.00
9760;DHT22;4919;48.792;9.202;2023-04-24T02:25:13;9.70;1.00
9760;DHT22;4919;48.792;9.202;2023-04-24T02:27:58;9.70;1.00
9760;DHT22;4919;48.792;9.202;2023-04-24T02:30:43;9.80;1.00
9760;DHT22;4919;48.792;9.202;2023-04-24T02:33:27;9.80;1.00
9760;DHT22;4919;48.792;9.202;2023-04-24T02:36:12;9.80;1.00
9760;DHT22;4919;48.792;9.202;2023-04-24T02:38:57;9.80;1.00
9760;DHT22;4919;48.792;9.202;2023-04-24T02:41:45;9.90;1.00
9760;DHT22;4919;48.792;9.202;2023-04-24T02:44:30;9.90;1.00
9760;DHT22;4919;48.792;9.202;2023-04-24T02:47:15;10.00;1.00
9760;DHT22;4919;48.792;9.202;2023-04-24T02:50:00;10.00;1.00
9760;DHT22;4919;48.792;9.202;2023-04-24T02:52:45;10.10;1.00
9760;DHT22;4919;48.792;9.202;2023-04-24T02:55:29;10.10;1.00
9760;DHT22;4919;48.792;9.202;2023-04-24T02:58:14;10.20;1.00
9760;DHT22;4919;48.792;9.202;2023-04-24T03:00:59;10.20;1.00
9760;DHT22;4919;48.792;9.202;2023-04-24T03:03:44;10.30;1.00
9760;DHT22;4919;48.792;9.202;2023-04-24T03:06:29;10.30;1.00
9760;DHT22;4919;48.792;9.202;2023-04-24T03:09:14;10.30;1.00
9760;DHT22;4919;48.792;9.202;2023-04-24T03:11:59;10.40;1.00
9760;DHT22;4919;48.792;9.202;2023-04-24T03:14:44;10.40;1.00
9760;DHT22;4919;48.792;9.202;2023-04-24T03:17:28;10.40;1.00
9760;DHT22;4919;48.792;9.202;2023-04-24T03:20:13;10.50;1.00
9760;DHT22;4919;48.792;9.202;2023-04-24T03:22:58;10.50;1.00
9760;DHT22;4919;48.792;9.202;2023-04-24T03:25:43;10.50;1.00
9760;DHT22;4919;48.792;9.202;2023-04-24T03:28:28;10.50;1.00
9760;DHT22;4919;48.792;9.202;2023-04-24T03:31:13;10.60;1.00
9760;DHT22;4919;48.792;9.202;2023-04-24T03:33:57;10.60;1.00
9760;DHT22;4919;48.792;9.202;2023-04-24T03:36:42;10.70;1.00
9760;DHT22;4919;48.792;9.202;2023-04-24T03:39:27;10.70;1.00
9760;DHT22;4919;48.792;9.202;2023-04-24T03:42:12;10.70;1.00
9760;DHT22;4919;48.792;9.202;2023-04-24T03:44:57;10.70;1.00
9760;DHT22;4919;48.792;9.202;2023-04-24T03:47:41;10.70;1.00
9760;DHT22;4919;48.792;9.202;2023-04-24T03:50:26;10.70;1.00
9760;DHT22;4919;48.792;9.202;2023-04-24T03:53:11;10.70;1.00
9760;DHT22;4919;48.792;9.202;2023-04-24T03:55:56;10.80;1.00
9760;DHT22;4919;48.792;9.202;2023-04-24T03:58:42;10.80;1.00
9760;DHT22;4919;48.792;9.202;2023-04-24T04:01:27;10.80;1.00
9760;DHT22;4919;48.792;9.202;2023-04-24T04:04:11;10.80;1.00
9760;DHT22;4919;48.792;9.202;2023-04-24T04:06:56;10.80;1.00
9760;DHT22;4919;48.792;9.202;2023-04-24T04:09:41;10.90;1.00
9760;DHT22;4919;48.792;9.202;2023-04-24T04:12:26;10.80;1.00
9760;DHT22;4919;48.792;9.202;2023-04-24T04:15:11;10.90;1.00
9760;DHT22;4919;48.792;9.202;2023-04-24T04:17:56;10.90;1.00
9760;DHT22;4919;48.792;9.202;2023-04-24T04:20:41;10.90;1.00
9760;DHT22;4919;48.792;9.202;2023-04-24T04:23:26;10.90;1.00
9760;DHT22;4919;48.792;9.202;2023-04-24T04:26:11;11.00;1.00
9760;DHT22;4919;48.792;9.202;2023-04-24T04:28:55;11.00;1.00
9760;DHT22;4919;48.792;9.202;2023-04-24T04:31:40;11.00;1.00
9760;DHT22;4919;48.792;9.202;2023-04-24T04:34:25;11.00;1.00
9760;DHT22;4919;48.792;9.202;2023-04-24T04:37:10;11.00;1.00
9760;DHT22;4919;48.792;9.202;2023-04-24T04:39:55;11.10;1.00
9760;DHT22;4919;48.792;9.202;2023-04-24T04:42:40;11.10;1.00
9760;DHT22;4919;48.792;9.202;2023-04-24T04:45:24;11.10;1.00
9760;DHT22;4919;48.792;9.202;2023-04-24T04:48:09;11.20;1.00
9760;DHT22;4919;48.792;9.202;2023-04-24T04:50:54;11.20;1.00
9760;DHT22;4919;48.792;9.202;2023-04-24T04:53:39;11.20;1.00
9760;DHT22;4919;48.792;9.202;2023-04-24T04:56:24;11.30;1.00
9760;DHT22;4919;48.792;9.202;2023-04-24T04:59:09;11.40;1.00
9760;DHT22;4919;48.792;9.202;2023-04-24T05:01:53;11.40;1.00
9760;DHT22;4919;48.792;9.202;2023-04-24T05:04:38;11.40;1.00
9760;DHT22;4919;48.792;9.202;2023-04-24T05:07:23;11.50;1.00
9760;DHT22;4919;48.792;9.202;2023-04-24T05:10:08;11.50;1.00
9760;DHT22;4919;48.792;9.202;2023-04-24T05:12:53;11.60;1.00
9760;DHT22;4919;48.792;9.202;2023-04-24T05:15:38;11.60;99.90
9760;DHT22;4919;48.792;9.202;2023-04-24T05:18:23;11.70;99.90
9760;DHT22;4919;48.792;9.202;2023-04-24T05:21:08;11.90;99.90
9760;DHT22;4919;48.792;9.202;2023-04-24T05:23:53;11.90;99.90
9760;DHT22;4919;48.792;9.202;2023-04-24T05:26:37;12.10;99.90
9760;DHT22;4919;48.792;9.202;2023-04-24T05:29:22;12.20;99.90
9760;DHT22;4919;48.792;9.202;2023-04-24T05:32:07;12.50;99.90
9760;DHT22;4919;48.792;9.202;2023-04-24T05:34:52;12.50;99.90
9760;DHT22;4919;48.792;9.202;2023-04-24T05:37:37;12.50;99.90
9760;DHT22;4919;48.792;9.202;2023-04-24T05:40:22;12.40;99.90
9760;DHT22;4919;48.792;9.202;2023-04-24T05:43:07;12.80;99.90
9760;DHT22;4919;48.792;9.202;2023-04-24T05:45:52;12.90;99.90
9760;DHT22;4919;48.792;9.202;2023-04-24T05:48:37;13.20;99.90
9760;DHT22;4919;48.792;9.202;2023-04-24T05:51:22;13.00;99.90
9760;DHT22;4919;48.792;9.202;2023-04-24T05:54:06;12.90;99.90
9760;DHT22;4919;48.792;9.202;2023-04-24T05:56:51;12.90;99.90
9760;DHT22;4919;48.792;9.202;2023-04-24T05:59:37;13.00;99.90
9760;DHT22;4919;48.792;9.202;2023-04-24T06:02:22;12.80;99.90
9760;DHT22;4919;48.792;9.202;2023-04-24T06:05:07;12.90;99.90
9760;DHT22;4919;48.792;9.202;2023-04-24T06:07:52;13.10;99.90
9760;DHT22;4919;48.792;9.202;2023-04-24T06:10:37;13.20;99.90
9760;DHT22;4919;48.792;9.202;2023-04-24T06:13:21;13.40;80.20
9760;DHT22;4919;48.792;9.202;2023-04-24T06:16:06;13.60;56.40
9760;DHT22;4919;48.792;9.202;2023-04-24T06:18:51;13.80;26.00
9760;DHT22;4919;48.792;9.202;2023-04-24T06:21:36;13.80;13.40
9760;DHT22;4919;48.792;9.202;2023-04-24T06:24:21;13.60;8.90
9760;DHT22;4919;48.792;9.202;2023-04-24T06:27:06;13.30;15.50
9760;DHT22;4919;48.792;9.202;2023-04-24T06:29:51;13.30;20.40
9760;DHT22;4919;48.792;9.202;2023-04-24T06:32:35;13.50;25.40
9760;DHT22;4919;48.792;9.202;2023-04-24T06:35:21;13.60;12.10
9760;DHT22;4919;48.792;9.202;2023-04-24T06:38:06;13.80;1.00
9760;DHT22;4919;48.792;9.202;2023-04-24T06:40:51;14.10;1.00
9760;DHT22;4919;48.792;9.202;2023-04-24T06:43:36;14.30;1.00
9760;DHT22;4919;48.792;9.202;2023-04-24T06:46:21;14.40;1.00
9760;DHT22;4919;48.792;9.202;2023-04-24T06:49:06;14.50;1.00
9760;DHT22;4919;48.792;9.202;2023-04-24T06:51:51;14.40;1.00
9760;DHT22;4919;48.792;9.202;2023-04-24T06:54:35;14.40;1.00
9760;DHT22;4919;48.792;9.202;2023-04-24T06:57:20;14.70;1.00
9760;DHT22;4919;48.792;9.202;2023-04-24T07:00:06;14.70;1.00
9760;DHT22;4919;48.792;9.202;2023-04-24T07:02:51;14.80;1.00
9760;DHT22;4919;48.792;9.202;2023-04-24T07:05:35;15.00;1.00
9760;DHT22;4919;48.792;9.202;2023-04-24T07:08:20;15.10;1.00
9760;DHT22;4919;48.792;9.202;2023-04-24T07:11:05;15.00;1.00
9760;DHT22;4919;48.792;9.202;2023-04-24T07:13:50;14.90;1.00
9760;DHT22;4919;48.792;9.202;2023-04-24T07:16:35;15.10;1.00
9760;DHT22;4919;48.792;9.202;2023-04-24T07:19:20;15.10;1.00
9760;DHT22;4919;48.792;9.202;2023-04-24T07:22:05;15.00;1.00
9760;DHT22;4919;48.792;9.202;2023-04-24T07:24:50;15.00;1.00
9760;DHT22;4919;48.792;9.202;2023-04-24T07:27:35;15.00;1.00
9760;DHT22;4919;48.792;9.202;2023-04-24T07:30:20;14.80;1.00
9760;DHT22;4919;48.792;9.202;2023-04-24T07:33:04;14.70;1.00
9760;DHT22;4919;48.792;9.202;2023-04-24T07:35:49;14.80;1.00
9760;DHT22;4919;48.792;9.202;2023-04-24T07:38:34;15.10;1.00
9760;DHT22;4919;48.792;9.202;2023-04-24T07:41:19;15.10;1.00
9760;DHT22;4919;48.792;9.202;2023-04-24T07:44:04;15.10;1.00
9760;DHT22;4919;48.792;9.202;2023-04-24T07:46:48;15.20;1.00
9760;DHT22;4919;48.792;9.202;2023-04-24T07:49:33;15.30;1.00
9760;DHT22;4919;48.792;9.202;2023-04-24T07:52:18;15.40;1.00
9760;DHT22;4919;48.792;9.202;2023-04-24T07:55:03;15.20;1.00
9760;DHT22;4919;48.792;9.202;2023-04-24T07:57:48;15.20;1.00
9760;DHT22;4919;48.792;9.202;2023-04-24T08:00:33;15.20;1.00
9760;DHT22;4919;48.792;9.202;2023-04-24T08:03:18;15.30;1.00
9760;DHT22;4919;48.792;9.202;2023-04-24T08:06:03;15.20;1.00
9760;DHT22;4919;48.792;9.202;2023-04-24T08:08:48;15.30;1.00
9760;DHT22;4919;48.792;9.202;2023-04-24T08:11:33;15.30;1.00
9760;DHT22;4919;48.792;9.202;2023-04-24T08:14:18;15.40;1.00
9760;DHT22;4919;48.792;9.202;2023-04-24T08:17:03;15.40;1.00
9760;DHT22;4919;48.792;9.202;2023-04-24T08:19:48;15.60;1.00
9760;DHT22;4919;48.792;9.202;2023-04-24T08:22:32;15.90;1.00
9760;DHT22;4919;48.792;9.202;2023-04-24T08:25:17;15.90;1.00
9760;DHT22;4919;48.792;9.202;2023-04-24T08:28:06;16.10;1.00
9760;DHT22;4919;48.792;9.202;2023-04-24T08:30:51;16.00;1.00
9760;DHT22;4919;48.792;9.202;2023-04-24T08:33:35;16.30;1.00
9760;DHT22;4919;48.792;9.202;2023-04-24T08:36:20;16.30;1.00
9760;DHT22;4919;48.792;9.202;2023-04-24T08:39:05;16.30;1.00
9760;DHT22;4919;48.792;9.202;2023-04-24T08:41:50;16.50;1.00
9760;DHT22;4919;48.792;9.202;2023-04-24T08:44:36;16.70;1.00
9760;DHT22;4919;48.792;9.202;2023-04-24T08:47:20;16.70;1.00
9760;DHT22;4919;48.792;9.202;2023-04-24T08:50:08;16.70;1.00
9760;DHT22;4919;48.792;9.202;2023-04-24T08:52:53;16.70;1.00
9760;DHT22;4919;48.792;9.202;2023-04-24T08:55:38;16.70;1.00
9760;DHT22;4919;48.792;9.202;2023-04-24T08:58:25;16.50;1.00
9760;DHT22;4919;48.792;9.202;2023-04-24T09:01:10;16.80;1.00
9760;DHT22;4919;48.792;9.202;2023-04-24T09:03:55;17.10;1.00
9760;DHT22;4919;48.792;9.202;2023-04-24T09:06:40;17.10;1.00
9760;DHT22;4919;48.792;9.202;2023-04-24T09:09:26;17.00;1.00
9760;DHT22;4919;48.792;9.202;2023-04-24T09:12:11;16.80;1.00
9760;DHT22;4919;48.792;9.202;2023-04-24T09:14:57;16.60;1.00
9760;DHT22;4919;48.792;9.202;2023-04-24T09:17:43;16.40;1.00
9760;DHT22;4919;48.792;9.202;2023-04-24T09:20:28;16.20;1.00
9760;DHT22;4919;48.792;9.202;2023-04-24T09:23:17;16.30;1.00
9760;DHT22;4919;48.792;9.202;2023-04-24T09:26:03;16.10;1.00
9760;DHT22;4919;48.792;9.202;2023-04-24T09:28:49;16.00;1.00
9760;DHT22;4919;48.792;9.202;2023-04-24T09:31:33;16.00;1.00
9760;DHT22;4919;48.792;9.202;2023-04-24T09:34:22;16.30;1.00
9760;DHT22;4919;48.792;9.202;2023-04-24T09:37:07;16.70;1.00
9760;DHT22;4919;48.792;9.202;2023-04-24T09:40:16;16.80;1.00
9760;DHT22;4919;48.792;9.202;2023-04-24T09:43:01;16.80;1.00
9760;DHT22;4919;48.792;9.202;2023-04-24T09:45:46;16.70;1.00
9760;DHT22;4919;48.792;9.202;2023-04-24T09:48:33;16.50;1.00
9760;DHT22;4919;48.792;9.202;2023-04-24T09:51:33;16.40;1.00
9760;DHT22;4919;48.792;9.202;2023-04-24T09:54:20;16.40;1.00
9760;DHT22;4919;48.792;9.202;2023-04-24T09:57:08;16.40;1.00
9760;DHT22;4919;48.792;9.202;2023-04-24T09:59:53;16.50;1.00
9760;DHT22;4919;48.792;9.202;2023-04-24T10:02:38;16.80;1.00
9760;DHT22;4919;48.792;9.202;2023-04-24T10:05:28;16.70;1.00
9760;DHT22;4919;48.792;9.202;2023-04-24T10:08:13;16.70;1.00
9760;DHT22;4919;48.792;9.202;2023-04-24T10:10:59;16.60;1.00
9760;DHT22;4919;48.792;9.202;2023-04-24T10:13:44;16.90;1.00
9760;DHT22;4919;48.792;9.202;2023-04-24T10:16:29;17.40;1.00
9760;DHT22;4919;48.792;9.202;2023-04-24T10:19:16;17.50;1.00
9760;DHT22;4919;48.792;9.202;2023-04-24T10:22:01;17.60;1.00
9760;DHT22;4919;48.792;9.202;2023-04-24T10:24:47;17.80;1.00
9760;DHT22;4919;48.792;9.202;2023-04-24T10:27:34;18.10;1.00
9760;DHT22;4919;48.792;9.202;2023-04-24T10:30:20;18.70;1.00
9760;DHT22;4919;48.792;9.202;2023-04-24T10:33:06;18.40;1.00
9760;DHT22;4919;48.792;9.202;2023-04-24T10:35:52;17.90;1.00
9760;DHT22;4919;48.792;9.202;2023-04-24T10:38:39;17.20;1.00
9760;DHT22;4919;48.792;9.202;2023-04-24T10:41:25;17.00;1.00
9760;DHT22;4919;48.792;9.202;2023-04-24T10:44:13;16.80;1.00
9760;DHT22;4919;48.792;9.202;2023-04-24T10:46:58;16.60;1.00
9760;DHT22;4919;48.792;9.202;2023-04-24T10:49:43;16.70;1.00
9760;DHT22;4919;48.792;9.202;2023-04-24T10:52:47;16.80;1.00
9760;DHT22;4919;48.792;9.202;2023-04-24T10:55:52;16.80;1.00
9760;DHT22;4919;48.792;9.202;2023-04-24T10:58:42;17.00;1.00
9760;DHT22;4919;48.792;9.202;2023-04-24T11:01:31;17.60;1.00
9760;DHT22;4919;48.792;9.202;2023-04-24T11:04:29;18.10;1.00
9760;DHT22;4919;48.792;9.202;2023-04-24T11:07:13;18.00;1.00
9760;DHT22;4919;48.792;9.202;2023-04-24T11:09:59;18.70;1.00
9760;DHT22;4919;48.792;9.202;2023-04-24T11:12:43;18.20;1.00
9760;DHT22;4919;48.792;9.202;2023-04-24T11:15:28;17.90;1.00
9760;DHT22;4919;48.792;9.202;2023-04-24T11:18:14;17.30;1.00
9760;DHT22;4919;48.792;9.202;2023-04-24T11:20:59;16.80;1.00
9760;DHT22;4919;48.792;9.202;2023-04-24T11:23:54;16.30;1.00
9760;DHT22;4919;48.792;9.202;2023-04-24T11:26:39;15.00;1.00
9760;DHT22;4919;48.792;9.202;2023-04-24T11:29:48;13.70;95.10
9760;DHT22;4919;48.792;9.202;2023-04-24T11:35:22;13.20;99.90
9760;DHT22;4919;48.792;9.202;2023-04-24T11:38:07;13.60;99.90
9760;DHT22;4919;48.792;9.202;2023-04-24T11:40:52;14.30;99.90
9760;DHT22;4919;48.792;9.202;2023-04-24T11:43:38;14.60;99.90
9760;DHT22;4919;48.792;9.202;2023-04-24T11:46:30;14.70;99.90
9760;DHT22;4919;48.792;9.202;2023-04-24T11:49:15;15.30;99.90
9760;DHT22;4919;48.792;9.202;2023-04-24T11:52:00;15.40;99.90
9760;DHT22;4919;48.792;9.202;2023-04-24T11:54:49;15.00;99.90
9760;DHT22;4919;48.792;9.202;2023-04-24T11:57:34;15.30;99.90
9760;DHT22;4919;48.792;9.202;2023-04-24T12:00:21;15.30;99.90
9760;DHT22;4919;48.792;9.202;2023-04-24T12:03:10;14.80;99.90
9760;DHT22;4919;48.792;9.202;2023-04-24T12:06:09;14.60;99.90
9760;DHT22;4919;48.792;9.202;2023-04-24T12:08:54;14.50;99.90
9760;DHT22;4919;48.792;9.202;2023-04-24T12:11:53;15.10;99.90
9760;DHT22;4919;48.792;9.202;2023-04-24T12:14:47;15.20;46.50
9760;DHT22;4919;48.792;9.202;2023-04-24T12:17:33;15.80;54.30
9760;DHT22;4919;48.792;9.202;2023-04-24T12:20:24;16.20;1.00
9760;DHT22;4919;48.792;9.202;2023-04-24T12:23:09;15.90;1.00
9760;DHT22;4919;48.792;9.202;2023-04-24T12:25:54;15.80;1.00
9760;DHT22;4919;48.792;9.202;2023-04-24T12:28:47;15.90;1.00
9760;DHT22;4919;48.792;9.202;2023-04-24T12:31:32;16.10;1.00
9760;DHT22;4919;48.792;9.202;2023-04-24T12:34:22;16.10;1.00
9760;DHT22;4919;48.792;9.202;2023-04-24T12:37:10;15.80;1.00
9760;DHT22;4919;48.792;9.202;2023-04-24T12:40:02;16.00;1.00
9760;DHT22;4919;48.792;9.202;2023-04-24T12:42:51;16.20;1.00
9760;DHT22;4919;48.792;9.202;2023-04-24T12:45:36;16.40;1.00
9760;DHT22;4919;48.792;9.202;2023-04-24T12:48:20;16.70;1.00
9760;DHT22;4919;48.792;9.202;2023-04-24T12:51:05;17.00;1.00
9760;DHT22;4919;48.792;9.202;2023-04-24T12:53:51;16.80;1.00
9760;DHT22;4919;48.792;9.202;2023-04-24T12:56:35;16.90;1.00
9760;DHT22;4919;48.792;9.202;2023-04-24T12:59:20;17.50;1.00
9760;DHT22;4919;48.792;9.202;2023-04-24T13:02:06;17.50;1.00
9760;DHT22;4919;48.792;9.202;2023-04-24T13:04:52;17.40;1.00
9760;DHT22;4919;48.792;9.202;2023-04-24T13:07:36;17.20;1.00
9760;DHT22;4919;48.792;9.202;2023-04-24T13:10:21;17.30;1.00
9760;DHT22;4919;48.792;9.202;2023-04-24T13:13:06;17.70;1.00
9760;DHT22;4919;48.792;9.202;2023-04-24T13:15:51;17.80;1.00
9760;DHT22;4919;48.792;9.202;2023-04-24T13:18:36;17.90;1.00
9760;DHT22;4919;48.792;9.202;2023-04-24T13:21:20;17.80;1.00
9760;DHT22;4919;48.792;9.202;2023-04-24T13:24:05;17.90;1.00
9760;DHT22;4919;48.792;9.202;2023-04-24T13:26:51;18.10;1.00
9760;DHT22;4919;48.792;9.202;2023-04-24T13:29:37;17.70;1.00
9760;DHT22;4919;48.792;9.202;2023-04-24T13:32:21;17.80;1.00
9760;DHT22;4919;48.792;9.202;2023-04-24T13:35:07;17.70;1.00
9760;DHT22;4919;48.792;9.202;2023-04-24T13:37:52;17.80;1.00
9760;DHT22;4919;48.792;9.202;2023-04-24T13:40:37;18.20;1.00
9760;DHT22;4919;48.792;9.202;2023-04-24T13:43:22;18.40;1.00
9760;DHT22;4919;48.792;9.202;2023-04-24T13:46:07;18.40;1.00
9760;DHT22;4919;48.792;9.202;2023-04-24T13:48:52;18.70;1.00
9760;DHT22;4919;48.792;9.202;2023-04-24T13:51:37;18.50;1.00
9760;DHT22;4919;48.792;9.202;2023-04-24T13:54:22;18.20;1.00
9760;DHT22;4919;48.792;9.202;2023-04-24T13:57:06;18.30;1.00
9760;DHT22;4919;48.792;9.202;2023-04-24T13:59:51;18.40;1.00
9760;DHT22;4919;48.792;9.202;2023-04-24T14:02:36;18.50;1.00
9760;DHT22;4919;48.792;9.202;2023-04-24T14:05:21;18.40;1.00
9760;DHT22;4919;48.792;9.202;2023-04-24T14:08:06;18.20;1.00
9760;DHT22;4919;48.792;9.202;2023-04-24T14:10:51;18.20;1.00
9760;DHT22;4919;48.792;9.202;2023-04-24T14:13:37;18.40;1.00
9760;DHT22;4919;48.792;9.202;2023-04-24T14:16:22;18.50;1.00
9760;DHT22;4919;48.792;9.202;2023-04-24T14:19:06;18.50;1.00
9760;DHT22;4919;48.792;9.202;2023-04-24T14:21:51;18.30;1.00
9760;DHT22;4919;48.792;9.202;2023-04-24T14:24:36;17.80;1.00
9760;DHT22;4919;48.792;9.202;2023-04-24T14:27:21;17.60;1.00
9760;DHT22;4919;48.792;9.202;2023-04-24T14:30:06;17.20;1.00
9760;DHT22;4919;48.792;9.202;2023-04-24T14:32:51;17.10;1.00
9760;DHT22;4919;48.792;9.202;2023-04-24T14:35:36;17.20;1.00
9760;DHT22;4919;48.792;9.202;2023-04-24T14:38:22;17.60;1.00
9760;DHT22;4919;48.792;9.202;2023-04-24T14:41:06;17.60;1.00
9760;DHT22;4919;48.792;9.202;2023-04-24T14:43:51;17.80;1.00
9760;DHT22;4919;48.792;9.202;2023-04-24T14:46:36;17.90;1.00
9760;DHT22;4919;48.792;9.202;2023-04-24T14:49:21;18.00;1.00
9760;DHT22;4919;48.792;9.202;2023-04-24T14:52:06;18.10;1.00
9760;DHT22;4919;48.792;9.202;2023-04-24T14:54:51;17.90;1.00
9760;DHT22;4919;48.792;9.202;2023-04-24T14:57:36;17.60;1.00
9760;DHT22;4919;48.792;9.202;2023-04-24T15:00:21;17.20;1.00
9760;DHT22;4919;48.792;9.202;2023-04-24T15:03:06;17.30;1.00
9760;DHT22;4919;48.792;9.202;2023-04-24T15:05:51;17.30;1.00
9760;DHT22;4919;48.792;9.202;2023-04-24T15:08:36;17.50;1.00
9760;DHT22;4919;48.792;9.202;2023-04-24T15:11:21;17.70;1.00
9760;DHT22;4919;48.792;9.202;2023-04-24T15:14:06;17.70;1.00
9760;DHT22;4919;48.792;9.202;2023-04-24T15:16:50;17.70;1.00
9760;DHT22;4919;48.792;9.202;2023-04-24T15:19:35;17.50;1.00
9760;DHT22;4919;48.792;9.202;2023-04-24T15:22:20;17.30;1.00
9760;DHT22;4919;48.792;9.202;2023-04-24T15:25:05;17.20;1.00
9760;DHT22;4919;48.792;9.202;2023-04-24T15:27:50;16.80;1.00
9760;DHT22;4919;48.792;9.202;2023-04-24T15:30:35;16.60;1.00
9760;DHT22;4919;48.792;9.202;2023-04-24T15:33:20;16.30;1.00
9760;DHT22;4919;48.792;9.202;2023-04-24T15:36:05;16.30;1.00
9760;DHT22;4919;48.792;9.202;2023-04-24T15:38:50;16.20;1.00
9760;DHT22;4919;48.792;9.202;2023-04-24T15:41:35;16.10;1.00
9760;DHT22;4919;48.792;9.202;2023-04-24T15:44:21;16.00;1.00
9760;DHT22;4919;48.792;9.202;2023-04-24T15:47:05;15.80;1.00
9760;DHT22;4919;48.792;9.202;2023-04-24T15:49:51;15.80;1.00
9760;DHT22;4919;48.792;9.202;2023-04-24T15:52:36;15.80;1.00
9760;DHT22;4919;48.792;9.202;2023-04-24T15:55:21;15.80;1.00
9760;DHT22;4919;48.792;9.202;2023-04-24T15:58:06;15.80;1.00
9760;DHT22;4919;48.792;9.202;2023-04-24T16:00:51;15.70;1.00
9760;DHT22;4919;48.792;9.202;2023-04-24T16:03:36;15.60;1.00
9760;DHT22;4919;48.792;9.202;2023-04-24T16:06:21;15.70;1.00
9760;DHT22;4919;48.792;9.202;2023-04-24T16:09:05;15.60;1.00
9760;DHT22;4919;48.792;9.202;2023-04-24T16:11:50;15.60;1.00
9760;DHT22;4919;48.792;9.202;2023-04-24T16:14:36;15.50;1.00
9760;DHT22;4919;48.792;9.202;2023-04-24T16:17:22;15.50;1.00
9760;DHT22;4919;48.792;9.202;2023-04-24T16:20:07;15.40;1.00
9760;DHT22;4919;48.792;9.202;2023-04-24T16:22:52;15.40;1.00
9760;DHT22;4919;48.792;9.202;2023-04-24T16:25:37;15.40;1.00
9760;DHT22;4919;48.792;9.202;2023-04-24T16:28:22;15.50;1.00
9760;DHT22;4919;48.792;9.202;2023-04-24T16:31:06;15.50;1.00
9760;DHT22;4919;48.792;9.202;2023-04-24T16:33:51;15.40;1.00
9760;DHT22;4919;48.792;9.202;2023-04-24T16:36:36;15.50;1.00
9760;DHT22;4919;48.792;9.202;2023-04-24T16:39:21;15.60;1.00
9760;DHT22;4919;48.792;9.202;2023-04-24T16:42:06;15.60;1.00
9760;DHT22;4919;48.792;9.202;2023-04-24T16:44:51;15.40;1.00
9760;DHT22;4919;48.792;9.202;2023-04-24T16:47:36;15.20;1.00
9760;DHT22;4919;48.792;9.202;2023-04-24T16:50:21;15.00;1.00
9760;DHT22;4919;48.792;9.202;2023-04-24T16:53:06;14.80;1.00
9760;DHT22;4919;48.792;9.202;2023-04-24T16:55:51;14.40;1.00
9760;DHT22;4919;48.792;9.202;2023-04-24T16:58:36;13.90;1.00
9760;DHT22;4919;48.792;9.202;2023-04-24T17:01:20;13.70;1.00
9760;DHT22;4919;48.792;9.202;2023-04-24T17:04:05;13.60;1.00
9760;DHT22;4919;48.792;9.202;2023-04-24T17:06:50;13.60;1.00
9760;DHT22;4919;48.792;9.202;2023-04-24T17:09:35;13.70;1.00
9760;DHT22;4919;48.792;9.202;2023-04-24T17:12:20;13.70;1.00
9760;DHT22;4919;48.792;9.202;2023-04-24T17:15:05;13.80;1.00
9760;DHT22;4919;48.792;9.202;2023-04-24T17:17:50;13.80;1.00
9760;DHT22;4919;48.792;9.202;2023-04-24T17:20:35;13.60;1.00
9760;DHT22;4919;48.792;9.202;2023-04-24T17:23:20;13.40;1.00
9760;DHT22;4919;48.792;9.202;2023-04-24T17:26:05;13.20;1.00
9760;DHT22;4919;48.792;9.202;2023-04-24T17:28:50;13.10;1.00
9760;DHT22;4919;48.792;9.202;2023-04-24T17:31:35;12.90;1.00
9760;DHT22;4919;48.792;9.202;2023-04-24T17:34:20;12.90;1.00
9760;DHT22;4919;48.792;9.202;2023-04-24T17:37:05;12.80;1.00
9760;DHT22;4919;48.792;9.202;2023-04-24T17:39:50;12.70;1.00
9760;DHT22;4919;48.792;9.202;2023-04-24T17:42:35;12.70;1.00
9760;DHT22;4919;48.792;9.202;2023-04-24T17:45:19;12.70;1.00
9760;DHT22;4919;48.792;9.202;2023-04-24T17:48:04;12.70;1.00
9760;DHT22;4919;48.792;9.202;2023-04-24T17:50:49;12.60;1.00
9760;DHT22;4919;48.792;9.202;2023-04-24T17:53:34;12.50;1.00
9760;DHT22;4919;48.792;9.202;2023-04-24T17:56:19;12.40;1.00
9760;DHT22;4919;48.792;9.202;2023-04-24T17:59:04;12.30;1.00
9760;DHT22;4919;48.792;9.202;2023-04-24T18:01:49;12.30;1.00
9760;DHT22;4919;48.792;9.202;2023-04-24T18:04:33;12.20;1.00
9760;DHT22;4919;48.792;9.202;2023-04-24T18:07:19;12.10;1.00
9760;DHT22;4919;48.792;9.202;2023-04-24T18:10:04;12.00;1.00
9760;DHT22;4919;48.792;9.202;2023-04-24T18:12:49;12.00;1.00
9760;DHT22;4919;48.792;9.202;2023-04-24T18:15:34;11.90;1.00
9760;DHT22;4919;48.792;9.202;2023-04-24T18:18:19;11.80;1.00
9760;DHT22;4919;48.792;9.202;2023-04-24T18:21:04;11.80;1.00
9760;DHT22;4919;48.792;9.202;2023-04-24T18:23:49;11.70;1.00